Airfield :
LOGIN :

Register | Disclaimer

   EN    FR    IT 

 










Legend :    VFR   Marginal VFR   IFR   Intensive IFR   Very Intensive IFR
Visi :
Ceiling :
>= 8 km
>= 3000ft
5 to 8 km
1000 to 3000 ft
1500m to 5 km
500 to 1000 ft
800 to 1500m
200 to 500 ft
< 800m
< 200 ft
Symbols :   Thunderstorms  Fog  Heavy snow  Heavy precipitations  Wind > 20 kt
SIGMETs :     Misc.  Thunderstorms  Icing  Turbulence  Mountain Waves  Volcanic Ashes






- Airport Elevation : 502 ft
- IATA code : ORK


EICK - Cork

CURRENT METAR :
  • 232230Z 21006KT 0500 R16/P2000 R34/1200D FG BKN001 BKN032 09/09 Q1003 TEMPO 1500

EXPIRED METARs :
  • 232200Z 21008KT 9999 FEW001 09/09 Q1003 NOSIG
  • 232130Z 22007KT 9000 FEW001 09/09 Q1003 NOSIG
  • 232100Z 22006KT 3000 R16/P2000 R34/1600D BR FEW001 09/09 Q1003 NOSIG
  • 232030Z 23006KT 8000 -DZ FEW002 10/09 Q1003 NOSIG
  • 232000Z 24006KT 9999 FEW002 SCT010 11/11 Q1003 NOSIG

TAF AMD TAF EICK
Valid from the 23 at 22:00 until the 24 at 18:00 UTC


232235Z 2322/2418 22010KT 9999 SCT001
TEMPO 2322/2324 0500 FG BKN001
TEMPO 2411/2416 -SHRA SCT018CB
BECMG 2415/2417 30012KT



MET'MAP, your aeronautical weather chart ! - Copyright ORBIFLY December 2007 - Disclaimer

ORBIFLY MET'MAP TEAM :

Programming & Development : Alexandra Zaïnal
Concept & Development : Baudouin d'Aumeries
Co-Development & Prog : Marc-Olivier Méhu
Technical & hardware support : Manuel Goepfert

Contact : metmap@orbifly.com




SOURCES & CREDITS :

   NOAA